Terminal Aerodrome Forecast
Issued by NWS

Home | Current Version | Previous Version | Graphics & Text | Print | Product List | Glossary On
Versions: 1 2 3 4 5 6 7 8 9 10 11 12 13 14 15 16 17 18 19 20 21
000
FTUS43 KBIS 111923 AAA
TAFDIK
TAF AMD
KDIK 111923Z 1119/1218 32016G22KT P6SM -SHSN BKN015 OVC025
      TEMPO 1120/1123 SCT025 BKN035
     FM112300 32014G21KT P6SM SCT020 OVC035
     FM120200 29008KT P6SM SCT025 BKN045
     FM120500 27008KT P6SM FEW040 SCT200
     FM121100 26009KT P6SM SCT110 SCT160=

USA.gov is the U.S. government's official web portal to all federal, state and local government web resources and services.